Time;durP1;ratioP1;P1;durP2;ratioP2;P2;SDS_P1;SDS_P2;PMS_P1;PMS_P2;Temp;Humidity;BMP_temperature;BMP_pressure;BME280_temperature;BME280_humidity;BME280_pressure;Samples;Min_cycle;Max_cycle;Signal;HPM_P1;HPM_P2
2023/08/03 00:00:15;;;;;;;2.10;1.00;;;22.40;99.90;;;;;;10101193;28;20087;-68
2023/08/03 00:05:06;;;;;;;4.45;1.30;;;22.40;99.90;;;;;;10096373;28;20036;-68
2023/08/03 00:09:56;;;;;;;3.58;0.77;;;22.30;99.90;;;;;;10096264;28;20974;-68
2023/08/03 00:14:49;;;;;;;4.88;1.40;;;22.20;99.90;;;;;;10091777;28;20025;-69
2023/08/03 00:19:39;;;;;;;3.83;0.93;;;22.10;99.90;;;;;;10101382;28;20033;-69
2023/08/03 00:24:30;;;;;;;2.88;1.08;;;22.20;99.90;;;;;;10102342;28;20057;-69
2023/08/03 00:29:21;;;;;;;2.50;0.63;;;22.20;99.90;;;;;;10103864;28;20032;-69
2023/08/03 00:34:12;;;;;;;4.00;1.13;;;22.30;99.90;;;;;;10102898;28;20091;-69
2023/08/03 00:39:02;;;;;;;2.35;0.95;;;22.30;99.90;;;;;;10111627;28;20021;-69
2023/08/03 00:43:53;;;;;;;3.47;1.10;;;22.20;99.90;;;;;;10107572;28;20059;-69
2023/08/03 00:48:44;;;;;;;3.13;2.03;;;22.30;99.90;;;;;;10100820;28;20033;-69
2023/08/03 00:53:35;;;;;;;4.38;0.98;;;22.20;99.90;;;;;;10101945;28;20021;-68
2023/08/03 00:58:27;;;;;;;2.35;1.13;;;22.20;99.90;;;;;;10119724;28;20128;-68
2023/08/03 01:03:17;;;;;;;3.22;1.05;;;22.10;99.90;;;;;;10100224;28;20136;-69
2023/08/03 01:08:08;;;;;;;1.83;1.05;;;22.20;99.90;;;;;;10108226;28;20115;-69
2023/08/03 01:12:59;;;;;;;2.15;0.90;;;22.20;99.90;;;;;;10101903;28;20036;-69
2023/08/03 01:17:50;;;;;;;1.58;0.57;;;22.10;99.90;;;;;;10102556;28;20065;-68
2023/08/03 01:22:42;;;;;;;2.95;0.50;;;22.00;99.90;;;;;;10105519;28;20056;-69
2023/08/03 01:27:33;;;;;;;3.28;0.75;;;21.90;99.90;;;;;;10102010;28;20070;-69
2023/08/03 01:32:23;;;;;;;2.17;0.40;;;22.00;99.90;;;;;;10100578;28;20025;-69
2023/08/03 01:37:14;;;;;;;2.28;0.70;;;22.00;99.90;;;;;;10101304;28;20510;-69
2023/08/03 01:42:05;;;;;;;1.90;0.40;;;21.90;99.90;;;;;;10115316;28;20037;-69
2023/08/03 01:46:58;;;;;;;2.45;1.20;;;21.70;99.90;;;;;;10098425;28;20021;-68
2023/08/03 01:51:49;;;;;;;1.23;0.73;;;21.50;99.90;;;;;;10101083;28;20033;-68
2023/08/03 01:56:41;;;;;;;0.95;0.80;;;21.50;99.90;;;;;;10100671;28;20095;-69
2023/08/03 02:01:32;;;;;;;1.77;0.40;;;21.40;99.90;;;;;;10099549;28;20041;-68
2023/08/03 02:06:22;;;;;;;2.83;0.65;;;21.40;99.90;;;;;;10106340;28;20031;-69
2023/08/03 02:11:14;;;;;;;1.63;0.80;;;21.40;99.90;;;;;;10114973;28;20037;-69
2023/08/03 02:16:10;;;;;;;4.50;0.90;;;21.40;99.90;;;;;;10099567;28;20022;-69
2023/08/03 02:21:00;;;;;;;1.35;1.17;;;21.40;99.90;;;;;;10100095;28;20057;-69
2023/08/03 02:25:51;;;;;;;2.50;0.65;;;21.40;99.90;;;;;;10096439;28;20116;-69
2023/08/03 02:30:42;;;;;;;2.40;0.65;;;21.50;99.90;;;;;;10090539;28;20017;-68
2023/08/03 02:35:37;;;;;;;3.53;0.88;;;21.40;99.90;;;;;;10087325;28;20707;-68
2023/08/03 02:40:27;;;;;;;4.47;1.02;;;21.40;99.90;;;;;;10105680;28;20216;-68
2023/08/03 02:45:18;;;;;;;2.30;0.60;;;21.40;99.90;;;;;;10102773;28;20032;-68
2023/08/03 02:50:09;;;;;;;3.17;1.00;;;21.40;99.90;;;;;;10095043;28;20029;-68
2023/08/03 02:55:00;;;;;;;3.28;0.93;;;21.30;99.90;;;;;;10099148;28;20116;-68
2023/08/03 02:59:51;;;;;;;1.40;0.60;;;21.30;99.90;;;;;;10097940;28;20039;-69
2023/08/03 03:04:41;;;;;;;1.25;0.80;;;21.20;99.90;;;;;;10093354;28;20141;-69
2023/08/03 03:09:32;;;;;;;1.52;0.40;;;21.20;99.90;;;;;;10095843;28;20112;-70
2023/08/03 03:14:25;;;;;;;1.15;0.32;;;21.10;99.90;;;;;;10096458;28;20378;-69
2023/08/03 03:19:16;;;;;;;0.52;0.45;;;20.90;99.90;;;;;;10095318;28;20031;-69
2023/08/03 03:24:07;;;;;;;1.98;0.88;;;21.00;99.90;;;;;;10092305;28;20060;-69
2023/08/03 03:28:57;;;;;;;1.08;0.70;;;21.20;99.90;;;;;;10103038;28;20025;-69
2023/08/03 03:33:48;;;;;;;2.35;1.30;;;21.30;99.90;;;;;;10112658;28;20116;-69
2023/08/03 03:38:38;;;;;;;1.85;0.45;;;21.20;99.90;;;;;;10106056;28;20070;-69
2023/08/03 03:43:29;;;;;;;3.15;0.63;;;21.30;99.90;;;;;;10099999;28;20129;-69
2023/08/03 03:48:20;;;;;;;1.92;0.40;;;21.30;99.90;;;;;;10094525;28;20032;-69
2023/08/03 03:53:10;;;;;;;2.33;0.50;;;21.20;99.90;;;;;;10099662;28;20529;-69
2023/08/03 03:58:02;;;;;;;2.60;0.80;;;21.30;99.90;;;;;;10105438;28;20033;-69
2023/08/03 04:02:53;;;;;;;1.00;0.30;;;21.20;99.90;;;;;;10103785;28;20049;-69
2023/08/03 04:07:44;;;;;;;0.68;0.43;;;21.30;99.90;;;;;;10104848;28;20021;-68
2023/08/03 04:12:34;;;;;;;1.20;0.30;;;21.20;99.90;;;;;;10119205;28;20052;-69
2023/08/03 04:17:25;;;;;;;1.85;0.60;;;21.20;99.90;;;;;;10102432;28;20242;-69
2023/08/03 04:22:16;;;;;;;1.15;0.50;;;21.10;99.90;;;;;;10103555;28;20118;-69
2023/08/03 04:27:07;;;;;;;2.35;0.70;;;21.10;99.90;;;;;;10103557;28;20390;-69
2023/08/03 04:32:00;;;;;;;3.13;0.80;;;21.10;99.90;;;;;;10118534;28;20037;-68
2023/08/03 04:36:51;;;;;;;3.05;1.02;;;21.10;99.90;;;;;;10104011;28;20125;-69
2023/08/03 04:41:42;;;;;;;2.72;0.73;;;21.10;99.90;;;;;;10100450;28;20060;-68
2023/08/03 04:46:32;;;;;;;2.25;1.13;;;21.00;99.90;;;;;;10103490;28;20037;-69
2023/08/03 04:51:28;;;;;;;3.10;0.73;;;20.90;99.90;;;;;;10099331;28;20036;-69
2023/08/03 04:56:20;;;;;;;1.90;0.55;;;20.80;99.90;;;;;;10103058;28;20078;-69
2023/08/03 05:01:10;;;;;;;1.73;0.55;;;20.80;99.90;;;;;;10112140;28;20904;-68
2023/08/03 05:06:01;;;;;;;0.25;0.13;;;20.70;99.90;;;;;;10084723;28;20576;-69
2023/08/03 05:10:52;;;;;;;3.42;0.47;;;20.60;99.90;;;;;;10082463;28;20033;-69
2023/08/03 05:15:44;;;;;;;2.28;0.43;;;20.50;99.90;;;;;;10097339;28;20033;-69
2023/08/03 05:20:35;;;;;;;0.98;0.30;;;20.40;99.90;;;;;;10096691;28;20045;-68
2023/08/03 05:25:29;;;;;;;4.72;1.27;;;20.40;99.90;;;;;;10100755;28;20402;-69
2023/08/03 05:30:20;;;;;;;1.43;0.60;;;20.40;99.90;;;;;;10116319;28;20025;-69
2023/08/03 05:35:12;;;;;;;1.90;0.50;;;20.40;99.90;;;;;;10108404;28;20028;-67
2023/08/03 05:40:04;;;;;;;2.08;0.60;;;20.50;99.90;;;;;;10109610;28;20550;-69
2023/08/03 05:44:54;;;;;;;1.30;0.88;;;20.40;99.90;;;;;;10103591;28;20032;-68
2023/08/03 05:49:46;;;;;;;0.73;0.40;;;20.40;99.90;;;;;;10099490;28;20036;-68
2023/08/03 05:54:37;;;;;;;0.85;0.68;;;20.50;99.90;;;;;;10116394;28;20021;-68
2023/08/03 05:59:28;;;;;;;0.85;0.47;;;20.50;99.90;;;;;;10100176;28;20048;-68
2023/08/03 06:04:19;;;;;;;1.60;0.63;;;20.50;99.90;;;;;;10099903;28;20029;-69
2023/08/03 06:09:14;;;;;;;2.05;0.50;;;20.50;99.90;;;;;;10100449;28;20021;-69
2023/08/03 06:14:11;;;;;;;0.75;0.30;;;20.50;99.90;;;;;;10114603;28;20029;-69
2023/08/03 06:19:01;;;;;;;3.50;1.02;;;20.50;99.90;;;;;;10099267;28;20025;-69
2023/08/03 06:23:57;;;;;;;1.90;0.63;;;20.50;99.90;;;;;;10098834;28;20392;-69
2023/08/03 06:28:53;;;;;;;3.17;0.95;;;20.70;99.90;;;;;;10082025;28;20035;-69
2023/08/03 06:33:45;;;;;;;0.85;0.40;;;20.70;99.90;;;;;;10084875;28;20041;-68
2023/08/03 06:38:36;;;;;;;3.40;0.70;;;20.70;99.90;;;;;;10120393;28;20036;-70
2023/08/03 06:43:28;;;;;;;1.45;0.70;;;20.70;99.90;;;;;;10091427;28;20105;-69
2023/08/03 06:48:20;;;;;;;3.08;0.47;;;20.60;99.90;;;;;;10096031;28;20451;-69
2023/08/03 06:53:12;;;;;;;5.25;0.73;;;20.70;99.90;;;;;;10112955;28;20043;-68
2023/08/03 06:58:03;;;;;;;1.92;0.85;;;20.60;99.90;;;;;;10111984;28;20176;-68
2023/08/03 07:02:57;;;;;;;1.38;0.43;;;20.70;99.90;;;;;;10088197;28;20041;-68
2023/08/03 07:07:47;;;;;;;1.83;0.75;;;20.70;99.90;;;;;;10095394;28;20059;-69
2023/08/03 07:12:38;;;;;;;2.17;0.50;;;20.70;99.90;;;;;;10096230;28;20057;-69
2023/08/03 07:17:29;;;;;;;2.05;0.80;;;20.70;99.90;;;;;;10097683;28;20032;-69
2023/08/03 07:22:20;;;;;;;2.30;0.60;;;20.60;99.90;;;;;;10096648;28;20600;-69
2023/08/03 07:27:11;;;;;;;3.22;1.10;;;20.60;99.90;;;;;;10096098;28;20096;-68
2023/08/03 07:32:02;;;;;;;1.95;0.90;;;20.60;99.90;;;;;;10096799;28;20183;-68
2023/08/03 07:36:54;;;;;;;3.22;0.82;;;20.60;99.90;;;;;;10096409;28;20047;-68
2023/08/03 07:41:44;;;;;;;2.42;0.80;;;20.70;99.90;;;;;;10109016;28;20082;-69
2023/08/03 07:46:35;;;;;;;2.97;0.65;;;20.70;99.90;;;;;;10098115;28;20098;-68
2023/08/03 07:51:26;;;;;;;5.22;1.40;;;20.60;99.90;;;;;;10094562;28;20017;-68
2023/08/03 07:56:20;;;;;;;1.80;0.60;;;20.60;99.90;;;;;;10096752;28;20388;-68
2023/08/03 08:01:11;;;;;;;4.00;0.87;;;20.60;99.90;;;;;;10096452;28;20080;-68
2023/08/03 08:06:14;;;;;;;0.95;0.85;;;20.50;99.90;;;;;;10096303;28;20141;-68
2023/08/03 08:11:05;;;;;;;1.73;0.30;;;20.50;99.90;;;;;;10111885;28;20028;-68
2023/08/03 08:16:02;;;;;;;1.65;0.90;;;20.50;99.90;;;;;;10094035;28;20051;-68
2023/08/03 08:21:03;;;;;;;1.90;0.50;;;20.60;99.90;;;;;;10090566;28;20041;-68
2023/08/03 08:25:54;;;;;;;2.20;0.45;;;20.60;99.90;;;;;;10097494;28;20021;-67
2023/08/03 08:30:45;;;;;;;0.73;0.50;;;20.60;99.90;;;;;;10110713;28;20028;-68
2023/08/03 08:35:36;;;;;;;0.50;0.50;;;20.60;99.90;;;;;;10095397;28;20025;-69
2023/08/03 08:40:27;;;;;;;0.60;0.30;;;20.60;99.90;;;;;;10108898;28;20041;-69
2023/08/03 08:45:18;;;;;;;1.70;0.50;;;20.60;99.90;;;;;;10108028;28;20028;-69
2023/08/03 08:50:09;;;;;;;0.55;0.40;;;20.60;99.90;;;;;;10100659;28;20025;-69
2023/08/03 08:55:14;;;;;;;1.70;0.52;;;20.50;99.90;;;;;;10103367;28;20135;-69
2023/08/03 09:00:06;;;;;;;1.52;0.52;;;20.50;99.90;;;;;;10103163;28;20421;-69
2023/08/03 09:04:57;;;;;;;2.22;0.82;;;20.60;99.90;;;;;;10101727;28;20021;-69
2023/08/03 09:09:48;;;;;;;0.52;0.43;;;20.60;99.90;;;;;;10107278;28;20106;-68
2023/08/03 09:14:51;;;;;;;2.33;0.60;;;20.60;99.90;;;;;;10101413;28;20095;-68
2023/08/03 09:19:42;;;;;;;2.50;1.10;;;20.50;99.90;;;;;;10092184;28;20033;-68
2023/08/03 09:24:33;;;;;;;1.52;0.60;;;20.60;99.90;;;;;;10101120;28;20057;-68
2023/08/03 09:29:28;;;;;;;2.50;0.70;;;20.60;99.90;;;;;;10101062;28;20519;-68
2023/08/03 09:34:19;;;;;;;1.67;0.60;;;20.70;99.90;;;;;;10102425;28;20025;-68
2023/08/03 09:39:17;;;;;;;4.43;0.82;;;20.70;99.90;;;;;;10110685;28;20029;-68
2023/08/03 09:44:08;;;;;;;1.98;0.98;;;20.70;99.90;;;;;;10106801;28;20120;-68
2023/08/03 09:48:58;;;;;;;2.53;0.68;;;20.70;99.90;;;;;;10098053;28;20100;-69
2023/08/03 09:53:53;;;;;;;3.45;0.73;;;20.70;99.90;;;;;;10101576;28;20032;-68
2023/08/03 09:58:58;;;;;;;;;;;20.70;99.90;;;;;;10092866;28;20021;-68
2023/08/03 10:03:54;;;;;;;1.63;0.65;;;20.70;99.90;;;;;;10092245;28;20412;-68
2023/08/03 10:08:56;;;;;;;2.42;0.70;;;20.70;99.90;;;;;;10115464;28;20425;-69
2023/08/03 10:13:49;;;;;;;1.63;0.65;;;20.90;99.90;;;;;;10100392;28;20036;-68
2023/08/03 10:18:41;;;;;;;0.98;0.90;;;20.90;99.90;;;;;;10099915;28;20112;-68
2023/08/03 10:23:35;;;;;;;4.13;0.90;;;20.90;99.90;;;;;;10113350;28;20045;-69
2023/08/03 10:28:41;;;;;;;0.75;0.47;;;21.00;99.90;;;;;;10101671;28;20037;-68
2023/08/03 10:33:46;;;;;;;0.40;0.30;;;20.90;99.90;;;;;;10095137;28;20037;-69
2023/08/03 10:38:42;;;;;;;0.90;0.40;;;21.10;99.90;;;;;;10103132;28;20024;-68
2023/08/03 10:43:32;;;;;;;1.90;0.93;;;21.30;99.90;;;;;;10095992;28;20466;-70
2023/08/03 10:48:30;;;;;;;1.33;0.57;;;21.40;99.90;;;;;;10096700;28;20039;-68
2023/08/03 10:53:21;;;;;;;1.45;0.40;;;21.50;99.90;;;;;;10098184;28;20411;-69
2023/08/03 10:58:12;;;;;;;0.68;0.50;;;21.50;99.90;;;;;;10099032;28;20027;-69
2023/08/03 11:03:02;;;;;;;1.42;0.60;;;21.40;99.90;;;;;;10112950;28;20107;-69
2023/08/03 11:07:55;;;;;;;1.27;0.50;;;21.40;99.90;;;;;;10098009;28;20039;-69
2023/08/03 11:12:46;;;;;;;5.43;0.85;;;21.40;99.90;;;;;;10096953;28;20309;-69
2023/08/03 11:17:37;;;;;;;2.22;0.50;;;21.20;99.90;;;;;;10097443;28;20017;-69
2023/08/03 11:22:28;;;;;;;3.67;1.33;;;20.90;99.90;;;;;;10096835;28;20056;-68
2023/08/03 11:27:19;;;;;;;2.65;0.80;;;20.90;99.90;;;;;;10104571;28;20020;-70
2023/08/03 11:32:15;;;;;;;1.52;0.63;;;20.90;99.90;;;;;;10097252;28;20075;-68
2023/08/03 11:37:09;;;;;;;1.60;0.70;;;21.00;99.90;;;;;;10097262;28;20413;-69
2023/08/03 11:42:00;;;;;;;0.85;0.50;;;21.10;99.90;;;;;;10112823;28;20334;-69
2023/08/03 11:47:04;;;;;;;3.00;0.85;;;21.30;99.90;;;;;;10077426;28;20490;-68
2023/08/03 11:51:59;;;;;;;4.70;1.63;;;21.20;99.90;;;;;;10082103;28;20507;-68
2023/08/03 11:56:51;;;;;;;1.52;0.52;;;21.30;99.90;;;;;;10095984;28;20179;-70
2023/08/03 12:01:49;;;;;;;1.13;0.60;;;21.30;99.90;;;;;;10096074;28;20037;-69
2023/08/03 12:06:48;;;;;;;2.45;0.60;;;21.40;99.90;;;;;;10095747;28;20060;-69
2023/08/03 12:11:38;;;;;;;1.30;0.50;;;21.60;99.90;;;;;;10108587;28;20028;-67
2023/08/03 12:16:29;;;;;;;1.15;0.47;;;21.70;99.90;;;;;;10103307;28;20063;-69
2023/08/03 12:21:19;;;;;;;2.20;0.65;;;21.70;99.90;;;;;;10103622;28;20048;-69
2023/08/03 12:26:10;;;;;;;0.55;0.40;;;21.70;99.90;;;;;;10103874;28;20025;-68
2023/08/03 12:31:05;;;;;;;0.85;0.57;;;21.50;99.90;;;;;;10102968;28;20025;-69
2023/08/03 12:35:55;;;;;;;1.17;0.40;;;21.30;99.90;;;;;;10103799;28;20060;-69
2023/08/03 12:40:46;;;;;;;0.30;0.30;;;21.10;99.90;;;;;;10120042;28;20098;-68
2023/08/03 12:45:37;;;;;;;1.65;0.73;;;21.20;99.90;;;;;;10109887;28;20035;-69
2023/08/03 12:50:28;;;;;;;1.83;0.40;;;21.40;99.90;;;;;;10116787;28;20025;-69
2023/08/03 12:55:20;;;;;;;1.38;0.50;;;21.50;99.90;;;;;;10103629;28;20501;-68
2023/08/03 13:00:11;;;;;;;1.40;0.40;;;21.70;99.90;;;;;;10102297;28;20071;-69
2023/08/03 13:05:02;;;;;;;2.00;0.32;;;21.80;99.90;;;;;;10102256;28;20021;-68
2023/08/03 13:09:53;;;;;;;1.95;0.40;;;22.00;99.90;;;;;;10102960;28;20029;-68
2023/08/03 13:14:43;;;;;;;1.17;0.32;;;22.00;99.90;;;;;;10101175;28;20112;-69
2023/08/03 13:19:34;;;;;;;0.45;0.43;;;22.10;99.90;;;;;;10101832;28;20755;-68
2023/08/03 13:24:25;;;;;;;0.82;0.15;;;22.20;99.90;;;;;;10100043;28;20049;-68
2023/08/03 13:29:20;;;;;;;1.90;0.50;;;22.20;99.90;;;;;;10101361;28;20509;-68
2023/08/03 13:34:10;;;;;;;0.60;0.45;;;22.20;99.90;;;;;;10109965;28;20021;-68
2023/08/03 13:39:03;;;;;;;0.20;0.20;;;22.10;99.90;;;;;;10109722;28;20036;-69
2023/08/03 13:43:54;;;;;;;0.60;0.40;;;22.30;99.90;;;;;;10106835;28;20094;-69
2023/08/03 13:48:44;;;;;;;0.32;0.30;;;22.70;99.90;;;;;;10114254;28;20402;-69
2023/08/03 13:53:38;;;;;;;2.15;0.60;;;22.70;99.90;;;;;;10100239;28;20026;-69
2023/08/03 13:58:29;;;;;;;0.43;0.20;;;22.60;99.90;;;;;;10117422;28;20025;-68
2023/08/03 14:03:19;;;;;;;0.32;0.17;;;22.40;99.90;;;;;;10100970;28;20041;-69
2023/08/03 14:08:10;;;;;;;0.75;0.38;;;22.40;99.90;;;;;;10099359;28;20094;-69
2023/08/03 14:13:01;;;;;;;0.40;0.40;;;22.60;99.90;;;;;;10098625;28;20029;-68
2023/08/03 14:17:53;;;;;;;2.22;0.40;;;22.90;99.90;;;;;;10089676;28;20511;-68
2023/08/03 14:22:44;;;;;;;1.58;0.40;;;23.10;99.90;;;;;;10097712;28;20107;-68
2023/08/03 14:27:34;;;;;;;0.82;0.40;;;22.90;99.90;;;;;;10097824;28;20049;-68
2023/08/03 14:32:25;;;;;;;1.52;0.60;;;22.70;99.90;;;;;;10098657;28;20029;-69
2023/08/03 14:37:16;;;;;;;0.52;0.40;;;22.70;99.90;;;;;;10098964;28;20163;-67
2023/08/03 14:42:09;;;;;;;1.60;0.50;;;22.70;99.90;;;;;;10112369;28;20062;-68
2023/08/03 14:47:00;;;;;;;1.00;0.82;;;22.50;99.90;;;;;;10104721;28;20025;-68
2023/08/03 14:51:51;;;;;;;0.40;0.30;;;22.40;99.90;;;;;;10098477;28;20029;-69
2023/08/03 14:56:41;;;;;;;2.67;0.70;;;22.60;99.90;;;;;;10097519;28;20025;-69
2023/08/03 15:01:32;;;;;;;1.48;0.50;;;23.10;99.90;;;;;;10096190;28;20048;-69
2023/08/03 15:06:23;;;;;;;0.90;0.50;;;23.20;99.90;;;;;;10097319;28;20032;-69
2023/08/03 15:11:14;;;;;;;0.57;0.40;;;23.10;99.90;;;;;;10097547;28;20037;-68
2023/08/03 15:16:15;;;;;;;2.20;0.75;;;22.90;99.90;;;;;;10096778;28;20384;-69
2023/08/03 15:21:19;;;;;;;2.70;0.85;;;22.70;99.90;;;;;;10096444;28;20411;-68
2023/08/03 15:26:10;;;;;;;1.20;0.60;;;22.60;99.90;;;;;;10097263;28;20021;-69
2023/08/03 15:31:01;;;;;;;2.35;0.88;;;22.60;99.90;;;;;;10095152;28;20098;-68
2023/08/03 15:35:51;;;;;;;1.40;0.90;;;22.50;99.90;;;;;;10111830;28;20108;-68
2023/08/03 15:40:42;;;;;;;1.17;0.60;;;22.50;99.90;;;;;;10112176;28;20037;-68
2023/08/03 15:45:33;;;;;;;0.57;0.40;;;22.40;99.90;;;;;;10097791;28;20258;-68
2023/08/03 15:50:24;;;;;;;0.55;0.47;;;22.30;99.90;;;;;;10093256;28;20036;-68
2023/08/03 15:55:15;;;;;;;1.17;0.70;;;22.30;99.90;;;;;;10095962;28;20403;-68
2023/08/03 16:00:06;;;;;;;1.88;1.08;;;22.20;99.90;;;;;;10097936;28;20032;-68
2023/08/03 16:04:58;;;;;;;3.15;1.73;;;22.20;99.90;;;;;;10095502;28;20024;-68
2023/08/03 16:09:49;;;;;;;5.55;1.92;;;22.40;99.90;;;;;;10111527;28;20148;-68
2023/08/03 16:14:43;;;;;;;1.60;1.05;;;23.60;99.90;;;;;;10095841;28;20506;-68
2023/08/03 16:19:34;;;;;;;2.45;1.00;;;24.50;99.90;;;;;;10095275;28;20040;-69
2023/08/03 16:24:25;;;;;;;2.45;0.88;;;24.70;99.90;;;;;;10097933;28;20045;-68
2023/08/03 16:29:16;;;;;;;0.88;0.60;;;24.10;99.90;;;;;;10095622;28;20104;-70
2023/08/03 16:34:07;;;;;;;3.83;1.10;;;23.80;99.90;;;;;;10095454;28;20013;-67
2023/08/03 16:38:58;;;;;;;0.70;0.50;;;23.40;99.90;;;;;;10103299;28;20424;-68
2023/08/03 16:43:48;;;;;;;1.90;0.70;;;23.00;99.90;;;;;;10095101;28;20884;-67
2023/08/03 16:48:41;;;;;;;1.10;0.55;;;22.70;99.90;;;;;;10092792;28;20032;-68
2023/08/03 16:53:32;;;;;;;1.48;1.08;;;22.50;99.90;;;;;;10098797;28;20052;-68
2023/08/03 16:58:23;;;;;;;5.05;1.98;;;22.40;99.90;;;;;;10096806;28;20021;-68
2023/08/03 17:03:14;;;;;;;4.28;1.73;;;22.60;99.90;;;;;;10101351;28;20094;-68
2023/08/03 17:08:05;;;;;;;5.00;2.42;;;23.10;99.90;;;;;;10104665;28;20445;-68
2023/08/03 17:12:56;;;;;;;5.75;2.75;;;23.20;99.90;;;;;;10102147;28;20029;-69
2023/08/03 17:17:47;;;;;;;2.38;1.77;;;23.00;99.90;;;;;;10100221;28;20151;-69
2023/08/03 17:22:40;;;;;;;4.13;1.50;;;23.10;99.90;;;;;;10100911;28;20124;-69
2023/08/03 17:27:31;;;;;;;3.78;1.77;;;23.10;99.90;;;;;;10117754;28;20108;-69
2023/08/03 17:32:21;;;;;;;5.50;1.38;;;22.90;99.90;;;;;;10100833;28;20562;-69
2023/08/03 17:37:12;;;;;;;3.28;1.00;;;22.70;99.90;;;;;;10110810;28;20104;-69
2023/08/03 17:42:03;;;;;;;2.63;1.00;;;22.60;99.90;;;;;;10099809;28;20403;-69
2023/08/03 17:46:56;;;;;;;1.42;0.90;;;22.50;99.90;;;;;;10099939;28;20072;-69
2023/08/03 17:51:48;;;;;;;0.85;0.50;;;22.40;99.90;;;;;;10102863;28;20025;-68
2023/08/03 17:56:39;;;;;;;1.30;0.93;;;22.30;99.90;;;;;;10086651;28;20046;-71
2023/08/03 18:01:30;;;;;;;3.03;0.90;;;22.30;99.90;;;;;;10110864;28;20071;-69
2023/08/03 18:06:24;;;;;;;1.85;0.93;;;22.30;99.90;;;;;;10093862;28;20056;-67
2023/08/03 18:11:15;;;;;;;2.20;0.70;;;22.30;99.90;;;;;;10095550;28;20021;-67
2023/08/03 18:16:07;;;;;;;1.73;0.60;;;22.10;99.90;;;;;;10099471;28;20025;-69
2023/08/03 18:20:58;;;;;;;1.20;0.70;;;22.20;99.90;;;;;;10098252;28;20166;-70
2023/08/03 18:25:48;;;;;;;4.60;0.57;;;22.00;99.90;;;;;;10097386;28;20124;-69
2023/08/03 18:30:39;;;;;;;1.02;0.50;;;21.90;99.90;;;;;;10098244;28;20028;-69
2023/08/03 18:35:29;;;;;;;1.83;0.63;;;21.80;99.90;;;;;;10099951;28;20456;-69
2023/08/03 18:40:20;;;;;;;1.15;0.60;;;21.60;99.90;;;;;;10099379;28;20418;-69
2023/08/03 18:45:11;;;;;;;2.40;0.60;;;21.70;99.90;;;;;;10097429;28;20029;-68
2023/08/03 18:50:03;;;;;;;1.73;0.68;;;21.70;99.90;;;;;;10098590;28;20430;-69
2023/08/03 18:54:54;;;;;;;1.52;0.70;;;21.70;99.90;;;;;;10094682;28;20025;-69
2023/08/03 18:59:44;;;;;;;1.88;0.90;;;21.50;99.90;;;;;;10097945;28;20033;-68
2023/08/03 19:04:35;;;;;;;1.23;0.82;;;21.60;99.90;;;;;;10097633;28;20109;-67
2023/08/03 19:09:26;;;;;;;2.03;1.10;;;21.60;99.90;;;;;;10085101;28;20463;-69
2023/08/03 19:14:17;;;;;;;1.25;0.70;;;21.60;99.90;;;;;;10086016;28;20522;-69
2023/08/03 19:19:08;;;;;;;0.77;0.60;;;21.60;99.90;;;;;;10102187;28;20174;-70
2023/08/03 19:23:58;;;;;;;1.25;0.60;;;21.70;99.90;;;;;;10101758;28;20565;-74
2023/08/03 19:28:49;;;;;;;1.70;0.88;;;21.60;99.90;;;;;;10078924;28;20047;-71
2023/08/03 19:33:40;;;;;;;1.10;0.80;;;21.60;99.90;;;;;;10094323;28;20021;-71
2023/08/03 19:38:31;;;;;;;2.25;0.63;;;21.50;99.90;;;;;;10082507;28;20051;-71
2023/08/03 19:43:22;;;;;;;1.55;0.90;;;21.40;99.90;;;;;;10079995;28;20048;-70
2023/08/03 19:48:13;;;;;;;2.30;0.77;;;21.50;99.90;;;;;;10080148;28;20033;-69
2023/08/03 19:53:04;;;;;;;2.15;1.60;;;21.50;99.90;;;;;;10108973;28;20529;-70
2023/08/03 19:57:55;;;;;;;2.22;1.15;;;21.60;99.90;;;;;;10092656;28;20044;-70
2023/08/03 20:02:47;;;;;;;1.40;1.02;;;21.60;99.90;;;;;;10090794;28;20564;-70
2023/08/03 20:07:37;;;;;;;1.75;1.00;;;21.60;99.90;;;;;;10088418;28;20029;-72
2023/08/03 20:12:32;;;;;;;2.60;1.00;;;21.60;99.90;;;;;;10083345;28;20026;-70
2023/08/03 20:17:22;;;;;;;3.43;2.00;;;21.50;99.90;;;;;;10084775;28;20018;-71
2023/08/03 20:22:13;;;;;;;3.75;1.13;;;21.40;99.90;;;;;;10088626;28;20052;-72
2023/08/03 20:27:08;;;;;;;1.85;1.08;;;21.40;99.90;;;;;;10081601;28;20067;-71
2023/08/03 20:31:59;;;;;;;2.10;1.07;;;21.20;99.90;;;;;;10093291;28;20036;-69
2023/08/03 20:36:53;;;;;;;1.83;0.95;;;21.20;99.90;;;;;;10100701;28;20526;-70
2023/08/03 20:41:43;;;;;;;1.98;0.90;;;21.30;99.90;;;;;;10091736;28;20474;-69
2023/08/03 20:46:34;;;;;;;2.15;0.98;;;21.20;99.90;;;;;;10102702;28;20033;-70
2023/08/03 20:51:26;;;;;;;1.33;0.93;;;21.20;99.90;;;;;;10102396;28;20399;-69
2023/08/03 20:56:16;;;;;;;2.53;0.70;;;21.10;99.90;;;;;;10099298;28;20184;-69
2023/08/03 21:01:07;;;;;;;1.30;0.88;;;21.00;99.90;;;;;;10102074;28;20203;-68
2023/08/03 21:05:58;;;;;;;2.67;0.88;;;21.10;99.90;;;;;;10102112;28;20028;-69
2023/08/03 21:10:49;;;;;;;1.38;0.60;;;21.00;99.90;;;;;;10101475;28;20154;-69
2023/08/03 21:15:43;;;;;;;2.15;0.70;;;20.90;99.90;;;;;;10102305;28;20032;-69
2023/08/03 21:20:34;;;;;;;2.15;0.60;;;20.90;99.90;;;;;;10095567;28;20048;-69
2023/08/03 21:25:25;;;;;;;1.30;0.70;;;20.90;99.90;;;;;;10094273;28;20851;-69
2023/08/03 21:30:16;;;;;;;2.35;1.13;;;20.90;99.90;;;;;;10098456;28;20071;-68
2023/08/03 21:35:08;;;;;;;2.38;1.10;;;20.90;99.90;;;;;;10101532;28;20448;-69
2023/08/03 21:39:59;;;;;;;1.58;1.00;;;20.90;99.90;;;;;;10101059;28;20047;-68
2023/08/03 21:44:51;;;;;;;1.50;0.73;;;20.80;99.90;;;;;;10093701;28;20029;-70
2023/08/03 21:49:41;;;;;;;2.70;0.98;;;20.90;99.90;;;;;;10096356;28;20017;-69
2023/08/03 21:54:32;;;;;;;2.28;1.17;;;20.90;99.90;;;;;;10104491;28;20156;-71
2023/08/03 21:59:23;;;;;;;3.05;0.93;;;20.80;99.90;;;;;;10100482;28;20487;-71
2023/08/03 22:04:15;;;;;;;1.92;1.00;;;20.80;99.90;;;;;;10099935;28;20128;-69
2023/08/03 22:09:05;;;;;;;2.47;1.25;;;20.90;99.90;;;;;;10105069;28;20104;-69
2023/08/03 22:13:56;;;;;;;1.63;0.70;;;20.90;99.90;;;;;;10101377;28;20123;-69
2023/08/03 22:18:48;;;;;;;1.00;0.57;;;20.90;99.90;;;;;;10093368;28;20029;-67
2023/08/03 22:23:39;;;;;;;1.92;0.73;;;20.80;99.90;;;;;;10120415;28;20053;-70
2023/08/03 22:28:30;;;;;;;2.15;0.73;;;20.70;99.90;;;;;;10080893;28;20115;-68
2023/08/03 22:33:24;;;;;;;0.80;0.47;;;20.60;99.90;;;;;;10092842;28;20033;-68
2023/08/03 22:38:15;;;;;;;1.05;0.50;;;20.50;99.90;;;;;;10111963;28;20020;-69
2023/08/03 22:43:06;;;;;;;1.15;0.60;;;20.50;99.90;;;;;;10098603;28;20040;-69
2023/08/03 22:47:57;;;;;;;1.63;0.90;;;20.40;99.90;;;;;;10098189;28;20021;-70
2023/08/03 22:52:47;;;;;;;4.95;1.23;;;20.30;99.90;;;;;;10098533;28;20044;-69
2023/08/03 22:57:38;;;;;;;6.05;2.75;;;20.40;99.90;;;;;;10098002;28;20020;-69
2023/08/03 23:02:29;;;;;;;4.20;1.45;;;20.40;99.90;;;;;;10097536;28;20044;-69
2023/08/03 23:07:19;;;;;;;2.00;0.95;;;20.50;99.90;;;;;;10106316;28;20029;-70
2023/08/03 23:12:10;;;;;;;1.08;0.70;;;20.40;99.90;;;;;;10097361;28;20029;-69
2023/08/03 23:17:01;;;;;;;0.82;0.52;;;20.40;99.90;;;;;;10091753;28;20028;-70
2023/08/03 23:21:51;;;;;;;1.88;0.90;;;20.40;99.90;;;;;;10096438;28;20048;-69
2023/08/03 23:26:43;;;;;;;0.40;0.40;;;20.40;99.90;;;;;;10092909;28;20391;-69
2023/08/03 23:31:33;;;;;;;0.80;0.52;;;20.30;99.90;;;;;;10096828;28;20032;-70
2023/08/03 23:36:24;;;;;;;1.67;1.35;;;20.30;99.90;;;;;;10096428;28;20036;-69
2023/08/03 23:41:15;;;;;;;0.95;0.60;;;20.30;99.90;;;;;;10096070;28;20072;-69
2023/08/03 23:46:05;;;;;;;2.05;0.50;;;20.30;99.90;;;;;;10096781;28;20633;-69
2023/08/03 23:50:56;;;;;;;1.65;0.47;;;20.30;99.90;;;;;;10096380;28;20036;-69
2023/08/03 23:55:46;;;;;;;1.45;0.60;;;20.30;99.90;;;;;;10101285;28;20025;-70
